createdAt,value
2023-08-17T00:01:16.975Z,30.05
2023-08-17T00:03:43.594Z,29.70
2023-08-17T00:06:10.253Z,29.60
2023-08-17T00:08:36.883Z,29.67
2023-08-17T00:11:03.513Z,29.43
2023-08-17T00:13:30.079Z,29.54
2023-08-17T00:15:56.654Z,29.41
2023-08-17T00:18:23.239Z,29.15
2023-08-17T00:20:49.885Z,29.19
2023-08-17T00:23:16.509Z,28.87
2023-08-17T00:25:43.097Z,28.85
2023-08-17T00:28:09.761Z,28.82
2023-08-17T00:30:36.508Z,28.78
2023-08-17T00:33:03.588Z,28.76
2023-08-17T00:35:30.275Z,29.01
2023-08-17T00:37:57.022Z,28.95
2023-08-17T00:40:23.818Z,28.83
2023-08-17T00:42:50.657Z,29.11
2023-08-17T00:45:17.381Z,28.85
2023-08-17T00:47:44.119Z,28.99
2023-08-17T00:50:12.819Z,28.96
2023-08-17T00:52:39.862Z,29.03
2023-08-17T00:55:07.177Z,29.15
2023-08-17T00:57:34.896Z,29.32
2023-08-17T01:00:05.343Z,29.40
2023-08-17T01:02:33.636Z,29.53
2023-08-17T01:05:00.420Z,29.61
2023-08-17T01:07:27.515Z,29.66
2023-08-17T01:09:54.603Z,29.69
2023-08-17T01:12:36.582Z,29.75
2023-08-17T01:15:15.697Z,29.73
2023-08-17T01:18:06.192Z,29.71
2023-08-17T01:20:34.484Z,29.67
2023-08-17T01:23:08.353Z,29.66
2023-08-17T01:25:35.044Z,29.66
2023-08-17T01:28:01.634Z,29.64
2023-08-17T01:30:28.367Z,29.59
2023-08-17T01:33:07.656Z,29.56
2023-08-17T01:35:43.277Z,29.53
2023-08-17T01:38:17.509Z,29.24
2023-08-17T01:40:46.847Z,29.24
2023-08-17T01:43:15.564Z,29.19
2023-08-17T01:45:42.164Z,29.17
2023-08-17T01:48:08.855Z,29.14
2023-08-17T01:50:37.189Z,29.07
2023-08-17T01:53:04.285Z,28.77
2023-08-17T01:55:31.086Z,28.78
2023-08-17T01:57:57.696Z,28.78
2023-08-17T02:00:24.302Z,28.65
2023-08-17T02:02:50.981Z,28.66
2023-08-17T02:05:17.770Z,28.59
2023-08-17T02:07:44.399Z,28.66
2023-08-17T02:10:11.209Z,28.65
2023-08-17T02:12:37.896Z,28.64
2023-08-17T02:15:04.931Z,28.68
2023-08-17T02:17:31.568Z,28.70
2023-08-17T02:19:58.217Z,28.74
2023-08-17T02:22:24.869Z,28.77
2023-08-17T02:24:51.460Z,28.83
2023-08-17T02:27:18.186Z,28.83
2023-08-17T02:29:44.817Z,28.83
2023-08-17T02:32:11.448Z,28.81
2023-08-17T02:34:38.119Z,28.83
2023-08-17T02:37:04.792Z,28.81
2023-08-17T02:39:31.477Z,28.83
2023-08-17T02:41:58.233Z,28.83
2023-08-17T02:44:24.859Z,28.70
2023-08-17T02:46:51.500Z,28.68
2023-08-17T02:49:18.201Z,28.64
2023-08-17T02:51:44.797Z,28.54
2023-08-17T02:54:11.336Z,28.58
2023-08-17T02:56:37.927Z,28.42
2023-08-17T02:59:04.633Z,28.22
2023-08-17T03:01:31.280Z,28.27
2023-08-17T03:03:57.951Z,27.93
2023-08-17T03:06:24.607Z,27.87
2023-08-17T03:08:51.221Z,27.86
2023-08-17T03:11:17.831Z,27.86
2023-08-17T03:13:44.414Z,27.77
2023-08-17T03:16:11.110Z,27.81
2023-08-17T03:18:37.747Z,27.42
2023-08-17T03:21:04.322Z,27.58
2023-08-17T03:23:30.886Z,27.50
2023-08-17T03:25:57.483Z,27.15
2023-08-17T03:28:24.101Z,27.35
2023-08-17T03:30:50.642Z,27.46
2023-08-17T03:33:17.210Z,27.47
2023-08-17T03:35:43.844Z,27.52
2023-08-17T03:38:10.471Z,27.49
2023-08-17T03:40:37.085Z,27.60
2023-08-17T03:43:04.058Z,27.62
2023-08-17T03:45:31.249Z,27.63
2023-08-17T03:47:57.988Z,27.60
2023-08-17T03:50:27.832Z,27.51
2023-08-17T03:52:54.624Z,27.60
2023-08-17T03:55:21.341Z,27.58
2023-08-17T03:57:48.025Z,27.54
2023-08-17T04:00:15.001Z,27.40
2023-08-17T04:02:41.785Z,27.37
2023-08-17T04:05:08.739Z,27.36
2023-08-17T04:07:35.689Z,27.32
2023-08-17T04:10:02.443Z,27.09
2023-08-17T04:12:48.982Z,27.14
2023-08-17T04:15:35.635Z,27.03
2023-08-17T04:18:22.255Z,26.90
2023-08-17T04:20:49.407Z,26.92
2023-08-17T04:23:16.038Z,26.97
2023-08-17T04:25:44.622Z,26.99
2023-08-17T04:28:11.273Z,27.04
2023-08-17T04:30:39.257Z,26.93
2023-08-17T04:33:06.622Z,26.89
2023-08-17T04:35:33.353Z,27.04
2023-08-17T04:38:00.035Z,27.05
2023-08-17T04:40:26.798Z,27.11
2023-08-17T04:42:53.449Z,27.11
2023-08-17T04:45:20.110Z,27.11
2023-08-17T04:47:46.771Z,27.17
2023-08-17T04:50:13.357Z,27.16
2023-08-17T04:52:39.990Z,27.13
2023-08-17T04:55:06.836Z,27.19
2023-08-17T04:57:33.442Z,27.12
2023-08-17T05:00:00.080Z,27.18
2023-08-17T05:02:26.752Z,27.18
2023-08-17T05:04:53.544Z,27.26
2023-08-17T05:07:20.274Z,27.27
2023-08-17T05:09:46.861Z,27.31
2023-08-17T05:12:13.451Z,27.32
2023-08-17T05:14:40.020Z,27.40
2023-08-17T05:17:06.601Z,27.50
2023-08-17T05:19:33.192Z,27.58
2023-08-17T05:21:59.828Z,27.49
2023-08-17T05:24:26.447Z,27.20
2023-08-17T05:26:53.254Z,27.36
2023-08-17T05:29:19.869Z,27.39
2023-08-17T05:31:46.460Z,27.19
2023-08-17T05:34:13.132Z,27.13
2023-08-17T05:36:39.702Z,27.14
2023-08-17T05:39:06.388Z,27.40
2023-08-17T05:41:33.072Z,27.51
2023-08-17T05:43:59.696Z,27.68
2023-08-17T05:46:26.385Z,27.65
2023-08-17T05:48:53.098Z,27.83
2023-08-17T05:51:19.782Z,27.92
2023-08-17T05:53:46.498Z,28.07
2023-08-17T05:56:13.222Z,28.06
2023-08-17T05:58:41.440Z,28.18
2023-08-17T06:01:10.500Z,28.24
2023-08-17T06:03:38.663Z,28.36
2023-08-17T06:06:06.544Z,28.39
2023-08-17T06:08:34.017Z,28.48
2023-08-17T06:11:00.906Z,28.55
2023-08-17T06:13:27.482Z,28.55
2023-08-17T06:15:55.922Z,28.60
2023-08-17T06:18:23.906Z,28.67
2023-08-17T06:20:50.531Z,28.72
2023-08-17T06:23:17.237Z,28.80
2023-08-17T06:25:44.010Z,28.84
2023-08-17T06:28:10.649Z,28.79
2023-08-17T06:30:37.362Z,28.88
2023-08-17T06:33:04.290Z,28.90
2023-08-17T06:35:30.912Z,29.05
2023-08-17T06:37:57.559Z,29.14
2023-08-17T06:40:24.714Z,28.82
2023-08-17T06:42:51.362Z,28.90
2023-08-17T06:45:18.020Z,28.77
2023-08-17T06:47:44.985Z,28.47
2023-08-17T06:50:13.307Z,28.76
2023-08-17T06:52:40.275Z,28.92
2023-08-17T06:55:07.037Z,28.60
2023-08-17T06:57:33.732Z,28.91
2023-08-17T07:00:00.336Z,29.02
2023-08-17T07:02:30.846Z,28.93
2023-08-17T07:07:40.626Z,28.95
2023-08-17T07:10:07.878Z,29.08
2023-08-17T07:12:34.550Z,29.03
2023-08-17T07:15:01.423Z,29.12
2023-08-17T07:17:28.650Z,28.87
2023-08-17T07:20:14.800Z,29.02
2023-08-17T07:22:42.212Z,29.03
2023-08-17T07:25:09.110Z,28.91
2023-08-17T07:27:35.900Z,28.87
2023-08-17T07:30:02.686Z,28.72
2023-08-17T07:32:29.648Z,28.98
2023-08-17T07:34:56.379Z,28.92
2023-08-17T07:37:23.214Z,28.58
2023-08-17T07:39:49.990Z,28.55
2023-08-17T07:42:16.722Z,28.66
2023-08-17T07:44:43.573Z,28.75
2023-08-17T07:47:10.358Z,28.76
2023-08-17T07:49:37.125Z,28.96
2023-08-17T07:52:04.146Z,29.10
2023-08-17T07:54:30.896Z,29.20
2023-08-17T07:56:57.669Z,29.24
2023-08-17T07:59:24.589Z,29.49
2023-08-17T08:01:51.390Z,29.54
2023-08-17T08:04:18.267Z,29.59
2023-08-17T08:06:45.070Z,29.73
2023-08-17T08:09:11.746Z,29.58
2023-08-17T08:11:38.874Z,29.77
2023-08-17T08:14:05.491Z,29.85
2023-08-17T08:16:32.245Z,29.85
2023-08-17T08:18:59.462Z,29.43
2023-08-17T08:21:26.298Z,29.50
2023-08-17T08:23:53.175Z,29.32
2023-08-17T08:26:19.978Z,29.45
2023-08-17T08:28:46.798Z,29.49
2023-08-17T08:31:13.832Z,29.22
2023-08-17T08:33:40.619Z,29.51
2023-08-17T08:36:07.360Z,29.74
2023-08-17T08:38:34.105Z,29.71
2023-08-17T08:41:03.356Z,29.83
2023-08-17T08:43:31.080Z,29.48
2023-08-17T08:46:00.113Z,29.80
2023-08-17T08:48:27.917Z,29.79
2023-08-17T08:50:56.839Z,29.59
2023-08-17T08:53:38.077Z,29.83
2023-08-17T08:56:08.445Z,29.95
2023-08-17T08:58:36.145Z,29.87
2023-08-17T09:03:36.494Z,30.20
2023-08-17T09:06:04.577Z,30.20
2023-08-17T09:08:32.010Z,30.22
2023-08-17T09:10:58.893Z,29.90
2023-08-17T09:13:25.708Z,30.18
2023-08-17T09:15:52.426Z,30.17
2023-08-17T09:18:20.099Z,30.34
2023-08-17T09:20:49.608Z,30.47
2023-08-17T09:23:18.933Z,30.53
2023-08-17T09:25:47.368Z,30.67
2023-08-17T09:28:18.630Z,30.43
2023-08-17T09:30:59.642Z,30.24
2023-08-17T09:33:28.752Z,30.25
2023-08-17T09:35:59.964Z,30.04
2023-08-17T09:38:28.089Z,29.61
2023-08-17T09:40:54.786Z,29.44
2023-08-17T09:43:22.430Z,29.68
2023-08-17T09:45:50.363Z,29.60
2023-08-17T09:48:18.278Z,29.28
2023-08-17T09:50:47.310Z,29.69
2023-08-17T09:53:19.054Z,29.85
2023-08-17T09:55:47.119Z,29.80
2023-08-17T09:58:14.654Z,29.89
2023-08-17T10:00:50.557Z,30.11
2023-08-17T10:03:19.418Z,30.10
2023-08-17T10:05:56.666Z,29.81
2023-08-17T10:08:24.654Z,29.77
2023-08-17T10:13:36.090Z,29.79
2023-08-17T10:16:44.682Z,29.90
2023-08-17T10:19:25.651Z,30.16
2023-08-17T10:22:04.559Z,30.51
2023-08-17T10:24:34.106Z,30.73
2023-08-17T10:27:01.926Z,30.86
2023-08-17T10:29:30.615Z,31.16
2023-08-17T10:31:58.555Z,31.40
2023-08-17T10:34:27.704Z,31.59
2023-08-17T10:36:55.889Z,31.73
2023-08-17T10:39:28.764Z,31.42
2023-08-17T10:41:57.489Z,31.81
2023-08-17T10:44:39.466Z,31.98
2023-08-17T10:47:25.231Z,31.93
2023-08-17T10:49:59.761Z,31.88
2023-08-17T10:52:34.661Z,32.08
2023-08-17T10:55:04.541Z,32.08
2023-08-17T10:57:41.793Z,31.90
2023-08-17T11:00:09.396Z,31.88
2023-08-17T11:02:36.986Z,32.11
2023-08-17T11:05:04.441Z,32.05
2023-08-17T11:07:42.300Z,32.20
2023-08-17T11:10:27.527Z,32.47
2023-08-17T11:12:54.960Z,31.99
2023-08-17T11:15:21.642Z,32.00
2023-08-17T11:17:48.313Z,32.41
2023-08-17T11:20:15.559Z,32.47
2023-08-17T11:22:42.806Z,32.38
2023-08-17T11:25:09.682Z,32.50
2023-08-17T11:27:38.903Z,32.55
2023-08-17T11:30:06.672Z,32.66
2023-08-17T11:32:33.759Z,32.61
2023-08-17T11:35:00.490Z,32.76
2023-08-17T11:37:27.244Z,32.64
2023-08-17T11:39:53.948Z,32.52
2023-08-17T11:42:20.688Z,32.66
2023-08-17T11:44:47.485Z,32.57
2023-08-17T11:47:14.174Z,32.44
2023-08-17T11:49:42.372Z,32.51
2023-08-17T11:52:12.817Z,32.45
2023-08-17T11:54:42.746Z,32.45
2023-08-17T11:57:09.532Z,32.51
2023-08-17T11:59:36.111Z,32.57
2023-08-17T12:02:02.833Z,32.46
2023-08-17T12:04:30.291Z,32.40
2023-08-17T12:06:57.040Z,32.65
2023-08-17T12:09:26.628Z,32.59
2023-08-17T12:12:01.427Z,32.76
2023-08-17T12:14:29.133Z,32.85
2023-08-17T12:16:56.475Z,32.96
2023-08-17T12:19:26.268Z,33.22
2023-08-17T12:21:53.149Z,32.95
2023-08-17T12:24:19.973Z,33.29
2023-08-17T12:26:48.155Z,33.23
2023-08-17T12:29:14.821Z,33.09
2023-08-17T12:31:42.018Z,33.20
2023-08-17T12:34:08.660Z,33.04
2023-08-17T12:36:35.909Z,33.18
2023-08-17T12:39:03.850Z,33.41
2023-08-17T12:41:32.158Z,33.23
2023-08-17T12:43:58.857Z,33.15
2023-08-17T12:46:26.242Z,33.35
2023-08-17T12:48:52.971Z,33.27
2023-08-17T12:51:19.706Z,33.38
2023-08-17T12:53:50.195Z,33.58
2023-08-17T12:56:17.516Z,33.55
2023-08-17T12:58:44.354Z,33.75
2023-08-17T13:01:11.050Z,33.83
2023-08-17T13:03:37.765Z,33.81
2023-08-17T13:06:04.613Z,33.82
2023-08-17T13:08:31.327Z,34.19
2023-08-17T13:10:58.084Z,34.12
2023-08-17T13:13:24.845Z,34.25
2023-08-17T13:15:51.530Z,34.32
2023-08-17T13:18:18.144Z,34.59
2023-08-17T13:20:45.140Z,34.80
2023-08-17T13:23:12.237Z,34.98
2023-08-17T13:25:38.856Z,35.41
2023-08-17T13:28:05.723Z,35.73
2023-08-17T13:30:32.402Z,35.62
2023-08-17T13:32:59.203Z,35.77
2023-08-17T13:35:26.011Z,35.99
2023-08-17T13:37:53.498Z,36.46
2023-08-17T13:40:20.481Z,36.91
2023-08-17T13:42:47.214Z,36.98
2023-08-17T13:45:13.896Z,37.39
2023-08-17T13:47:40.542Z,37.62
2023-08-17T13:50:07.675Z,38.01
2023-08-17T13:52:34.347Z,38.11
2023-08-17T13:55:01.028Z,38.56
2023-08-17T13:57:27.729Z,38.88
2023-08-17T13:59:54.436Z,39.17
2023-08-17T14:02:21.077Z,39.28
2023-08-17T14:04:47.706Z,39.51
2023-08-17T14:07:14.379Z,39.77
2023-08-17T14:09:46.547Z,40.04
2023-08-17T14:12:18.163Z,40.46
2023-08-17T14:14:44.784Z,40.72
2023-08-17T14:17:11.420Z,41.09
2023-08-17T14:19:38.093Z,41.15
2023-08-17T14:22:04.971Z,41.21
2023-08-17T14:24:31.666Z,41.33
2023-08-17T14:26:58.352Z,41.31
2023-08-17T14:29:25.092Z,41.56
2023-08-17T14:31:56.149Z,41.41
2023-08-17T14:34:23.116Z,41.41
2023-08-17T14:36:49.853Z,41.67
2023-08-17T14:39:16.531Z,41.41
2023-08-17T14:41:46.667Z,41.68
2023-08-17T14:44:13.557Z,41.86
2023-08-17T14:46:40.323Z,41.90
2023-08-17T14:49:07.090Z,41.68
2023-08-17T14:51:39.326Z,41.32
2023-08-17T14:54:07.550Z,40.99
2023-08-17T14:56:34.178Z,40.36
2023-08-17T14:59:00.931Z,40.17
2023-08-17T15:01:27.586Z,40.40
2023-08-17T15:03:54.322Z,40.49
2023-08-17T15:06:32.331Z,40.67
2023-08-17T15:09:01.216Z,40.81
2023-08-17T15:11:28.018Z,41.05
2023-08-17T15:13:54.720Z,41.06
2023-08-17T15:16:25.144Z,40.69
2023-08-17T15:18:52.490Z,40.66
2023-08-17T15:21:19.110Z,40.64
2023-08-17T15:23:45.715Z,40.30
2023-08-17T15:26:12.309Z,40.18
2023-08-17T15:28:42.353Z,39.88
2023-08-17T15:31:09.009Z,39.68
2023-08-17T15:33:35.722Z,39.77
2023-08-17T15:36:02.388Z,39.73
2023-08-17T15:38:29.069Z,39.42
2023-08-17T15:40:55.894Z,39.18
2023-08-17T15:43:22.597Z,38.98
2023-08-17T15:45:52.746Z,38.98
2023-08-17T15:48:19.794Z,38.85
2023-08-17T15:50:46.480Z,39.12
2023-08-17T15:53:13.122Z,39.25
2023-08-17T15:55:39.772Z,39.32
2023-08-17T15:58:06.558Z,38.83
2023-08-17T16:00:33.340Z,38.97
2023-08-17T16:03:00.104Z,38.84
2023-08-17T16:05:26.835Z,38.77
2023-08-17T16:07:53.447Z,38.62
2023-08-17T16:10:20.138Z,38.49
2023-08-17T16:12:46.797Z,38.45
2023-08-17T16:15:13.376Z,38.39
2023-08-17T16:17:40.055Z,38.38
2023-08-17T16:20:08.941Z,38.34
2023-08-17T16:22:35.653Z,38.20
2023-08-17T16:25:02.320Z,38.10
2023-08-17T16:27:29.533Z,38.06
2023-08-17T16:29:56.387Z,37.97
2023-08-17T16:32:23.050Z,37.81
2023-08-17T16:34:49.597Z,37.68
2023-08-17T16:37:16.677Z,37.51
2023-08-17T16:39:43.178Z,37.36
2023-08-17T16:42:09.825Z,37.16
2023-08-17T16:44:36.384Z,37.03
2023-08-17T16:47:03.024Z,36.99
2023-08-17T16:49:30.496Z,36.87
2023-08-17T16:51:59.636Z,36.81
2023-08-17T16:54:26.176Z,36.75
2023-08-17T16:56:54.168Z,36.65
2023-08-17T16:59:21.133Z,36.64
2023-08-17T17:01:47.730Z,36.79
2023-08-17T17:04:14.408Z,36.80
2023-08-17T17:06:41.089Z,37.02
2023-08-17T17:09:07.671Z,37.14
2023-08-17T17:11:34.225Z,36.87
2023-08-17T17:14:01.018Z,36.92
2023-08-17T17:16:27.594Z,37.26
2023-08-17T17:18:54.131Z,37.26
2023-08-17T17:21:20.672Z,37.44
2023-08-17T17:23:49.194Z,37.57
2023-08-17T17:26:15.774Z,37.71
2023-08-17T17:28:42.353Z,37.86
2023-08-17T17:31:08.961Z,38.13
2023-08-17T17:33:35.738Z,37.95
2023-08-17T17:36:02.399Z,37.93
2023-08-17T17:38:28.987Z,38.02
2023-08-17T17:40:57.553Z,38.08
2023-08-17T17:43:24.564Z,38.04
2023-08-17T17:45:51.316Z,37.63
2023-08-17T17:48:18.695Z,37.58
2023-08-17T17:50:45.889Z,37.63
2023-08-17T17:53:12.600Z,37.73
2023-08-17T17:55:39.265Z,37.63
2023-08-17T17:58:05.973Z,37.41
2023-08-17T18:00:33.198Z,37.18
2023-08-17T18:03:13.980Z,37.01
2023-08-17T18:05:43.093Z,36.72
2023-08-17T18:08:09.704Z,36.41
2023-08-17T18:10:41.499Z,36.20
2023-08-17T18:13:09.269Z,35.99
2023-08-17T18:15:38.805Z,35.78
2023-08-17T18:18:06.674Z,35.55
2023-08-17T18:20:33.855Z,35.31
2023-08-17T18:23:00.663Z,35.01
2023-08-17T18:25:27.551Z,34.78
2023-08-17T18:27:54.461Z,34.44
2023-08-17T18:30:21.137Z,34.17
2023-08-17T18:32:47.816Z,33.99
2023-08-17T18:35:14.659Z,33.65
2023-08-17T18:37:41.292Z,33.49
2023-08-17T18:40:08.499Z,33.12
2023-08-17T18:42:35.191Z,33.05
2023-08-17T18:45:01.909Z,32.93
2023-08-17T18:47:28.734Z,32.81
2023-08-17T18:49:55.474Z,32.75
2023-08-17T18:52:22.130Z,32.65
2023-08-17T18:55:01.943Z,32.53
2023-08-17T18:57:29.330Z,32.41
2023-08-17T18:59:56.819Z,32.40
2023-08-17T19:02:23.599Z,32.34
2023-08-17T19:04:50.315Z,32.24
2023-08-17T19:07:17.483Z,31.99
2023-08-17T19:09:46.378Z,31.93
2023-08-17T19:12:12.978Z,31.63
2023-08-17T19:14:39.500Z,31.44
2023-08-17T19:17:06.034Z,31.19
2023-08-17T19:19:32.692Z,31.23
2023-08-17T19:21:59.396Z,30.95
2023-08-17T19:24:25.970Z,30.91
2023-08-17T19:26:52.496Z,31.04
2023-08-17T19:29:19.069Z,30.91
2023-08-17T19:31:45.793Z,30.63
2023-08-17T19:34:12.484Z,30.40
2023-08-17T19:36:39.156Z,29.98
2023-08-17T19:39:05.715Z,30.10
2023-08-17T19:41:32.222Z,30.20
2023-08-17T19:43:58.735Z,30.19
2023-08-17T19:46:26.033Z,30.14
2023-08-17T19:49:12.687Z,30.13
2023-08-17T19:51:39.297Z,30.05
2023-08-17T19:54:06.009Z,30.21
2023-08-17T19:56:32.771Z,30.42
2023-08-17T19:59:00.393Z,30.56
2023-08-17T20:01:26.970Z,30.59
2023-08-17T20:03:53.605Z,30.60
2023-08-17T20:06:20.161Z,30.43
2023-08-17T20:08:46.789Z,30.48
2023-08-17T20:11:13.711Z,30.34
2023-08-17T20:13:40.267Z,30.46
2023-08-17T20:16:06.915Z,30.57
2023-08-17T20:18:33.634Z,30.16
2023-08-17T20:21:00.208Z,30.43
2023-08-17T20:23:26.747Z,30.17
2023-08-17T20:25:55.582Z,30.25
2023-08-17T20:28:24.692Z,30.12
2023-08-17T20:30:59.465Z,30.21
2023-08-17T20:33:26.709Z,30.17
2023-08-17T20:35:54.966Z,30.07
2023-08-17T20:38:22.658Z,30.05
2023-08-17T20:40:49.242Z,29.89
2023-08-17T20:43:15.880Z,30.06
2023-08-17T20:45:43.555Z,30.17
2023-08-17T20:48:10.724Z,30.04
2023-08-17T20:50:38.270Z,30.15
2023-08-17T20:53:08.707Z,29.90
2023-08-17T20:55:40.063Z,29.50
2023-08-17T20:58:06.845Z,29.29
2023-08-17T21:00:34.156Z,29.47
2023-08-17T21:03:00.722Z,29.58
2023-08-17T21:05:28.499Z,29.60
2023-08-17T21:07:55.949Z,29.82
2023-08-17T21:10:24.161Z,29.72
2023-08-17T21:12:50.697Z,29.79
2023-08-17T21:15:17.403Z,29.71
2023-08-17T21:17:44.076Z,29.87
2023-08-17T21:20:11.049Z,29.80
2023-08-17T21:22:39.344Z,29.87
2023-08-17T21:25:06.791Z,30.06
2023-08-17T21:27:33.308Z,29.87
2023-08-17T21:30:00.989Z,29.92
2023-08-17T21:32:27.904Z,29.96
2023-08-17T21:34:54.481Z,29.69
2023-08-17T21:37:29.385Z,29.72
2023-08-17T21:39:56.466Z,29.80
2023-08-17T21:42:23.133Z,29.86
2023-08-17T21:44:50.412Z,29.78
2023-08-17T21:47:17.153Z,29.77
2023-08-17T21:49:46.972Z,29.57
2023-08-17T21:52:17.383Z,29.53
2023-08-17T21:54:43.925Z,29.64
2023-08-17T21:57:10.467Z,29.62
2023-08-17T21:59:37.068Z,29.58
2023-08-17T22:02:03.986Z,29.59
2023-08-17T22:04:30.569Z,29.50
2023-08-17T22:06:57.118Z,29.58
2023-08-17T22:09:23.687Z,29.60
2023-08-17T22:11:50.254Z,29.54
2023-08-17T22:14:16.789Z,29.47
2023-08-17T22:16:43.379Z,29.45
2023-08-17T22:19:09.932Z,29.40
2023-08-17T22:21:36.495Z,29.38
2023-08-17T22:24:03.166Z,29.38
2023-08-17T22:26:29.701Z,29.33
2023-08-17T22:28:56.232Z,29.13
2023-08-17T22:31:22.821Z,29.10
2023-08-17T22:33:49.377Z,28.77
2023-08-17T22:36:15.931Z,28.92
2023-08-17T22:38:42.460Z,28.92
2023-08-17T22:41:09.036Z,28.95
2023-08-17T22:43:35.663Z,28.97
2023-08-17T22:46:03.669Z,28.92
2023-08-17T22:48:30.329Z,28.89
2023-08-17T22:50:57.039Z,28.81
2023-08-17T22:53:23.604Z,28.88
2023-08-17T22:55:50.587Z,28.81
2023-08-17T22:58:17.182Z,28.82
2023-08-17T23:00:43.909Z,28.78
2023-08-17T23:03:10.480Z,28.71
2023-08-17T23:05:37.017Z,28.67
2023-08-17T23:08:03.964Z,28.29
2023-08-17T23:10:30.505Z,28.46
2023-08-17T23:12:57.036Z,28.22
2023-08-17T23:15:23.667Z,28.08
2023-08-17T23:17:50.262Z,28.00
2023-08-17T23:20:16.858Z,28.22
2023-08-17T23:22:43.449Z,28.32
2023-08-17T23:25:09.983Z,28.26
2023-08-17T23:27:36.578Z,28.37
2023-08-17T23:30:03.293Z,28.42
2023-08-17T23:32:29.913Z,28.43
2023-08-17T23:34:56.737Z,28.50
2023-08-17T23:37:23.428Z,28.50
2023-08-17T23:39:50.059Z,28.51
2023-08-17T23:42:16.614Z,28.56
2023-08-17T23:44:43.236Z,28.54
2023-08-17T23:47:11.829Z,28.56
2023-08-17T23:52:19.977Z,28.35
2023-08-17T23:54:46.510Z,28.41
2023-08-17T23:57:13.072Z,28.47
2023-08-17T23:59:39.619Z,28.51
